Time;durP1;ratioP1;P1;durP2;ratioP2;P2;SDS_P1;SDS_P2;PMS_P1;PMS_P2;Temp;Humidity;BMP_temperature;BMP_pressure;BME280_temperature;BME280_humidity;BME280_pressure;Samples;Min_cycle;Max_cycle;Signal;HPM_P1;HPM_P2
2021/10/25 00:00:42;;;;;;;19.52;7.43;;;;;;;;;;5062627;28;20060;-78
2021/10/25 00:03:10;;;;;;;16.08;6.35;;;;;;;;;;5029992;28;20493;-78
2021/10/25 00:05:37;;;;;;;17.15;7.70;;;;;;;;;;5056580;28;20087;-78
2021/10/25 00:08:04;;;;;;;21.63;7.80;;;;;;;;;;5034742;28;20080;-78
2021/10/25 00:10:31;;;;;;;21.98;7.22;;;;;;;;;;5013045;28;20107;-78
2021/10/25 00:12:59;;;;;;;16.30;7.38;;;;;;;;;;5032576;28;20094;-78
2021/10/25 00:15:27;;;;;;;17.95;6.97;;;;;;;;;;5032414;28;20087;-78
2021/10/25 00:17:54;;;;;;;19.40;8.43;;;;;;;;;;5028863;28;20076;-78
2021/10/25 00:20:21;;;;;;;23.80;7.65;;;;;;;;;;5047808;28;20128;-78
2021/10/25 00:22:48;;;;;;;20.38;6.63;;;;;;;;;;5020298;28;20136;-78
2021/10/25 00:25:16;;;;;;;15.43;7.75;;;;;;;;;;5046220;28;20092;-78
2021/10/25 00:27:44;;;;;;;19.75;8.23;;;;;;;;;;5023367;28;20725;-78
2021/10/25 00:30:11;;;;;;;17.55;7.68;;;;;;;;;;5054312;28;20087;-78
2021/10/25 00:32:38;;;;;;;16.58;7.60;;;;;;;;;;5013325;28;20433;-78
2021/10/25 00:35:06;;;;;;;23.27;7.45;;;;;;;;;;5027910;28;20406;-78
2021/10/25 00:37:34;;;;;;;22.58;7.32;;;;;;;;;;5034467;28;20087;-78
2021/10/25 00:40:01;;;;;;;18.75;8.23;;;;;;;;;;5020908;28;20049;-78
2021/10/25 00:42:28;;;;;;;19.45;7.18;;;;;;;;;;5033895;28;20045;-78
2021/10/25 00:44:55;;;;;;;23.27;7.43;;;;;;;;;;5020692;28;20649;-77
2021/10/25 00:47:22;;;;;;;15.60;7.55;;;;;;;;;;5040032;28;20091;-78
2021/10/25 00:49:49;;;;;;;20.02;8.07;;;;;;;;;;5013143;28;20053;-77
2021/10/25 00:52:18;;;;;;;20.55;8.35;;;;;;;;;;5046816;28;20154;-78
2021/10/25 00:54:46;;;;;;;30.13;9.07;;;;;;;;;;5021686;28;20088;-78
2021/10/25 00:57:13;;;;;;;20.20;8.93;;;;;;;;;;5027786;28;20143;-78
2021/10/25 00:59:40;;;;;;;20.92;8.98;;;;;;;;;;5031677;28;20132;-78
2021/10/25 01:02:07;;;;;;;23.58;8.70;;;;;;;;;;5036857;28;20164;-78
2021/10/25 01:04:35;;;;;;;22.13;8.10;;;;;;;;;;5054853;28;20056;-78
2021/10/25 01:07:03;;;;;;;22.98;9.30;;;;;;;;;;5061928;28;20065;-78
2021/10/25 01:09:31;;;;;;;23.30;9.30;;;;;;;;;;5031882;28;20077;-78
2021/10/25 01:11:59;;;;;;;26.25;8.43;;;;;;;;;;5040832;28;20140;-78
2021/10/25 01:14:26;;;;;;;21.35;8.50;;;;;;;;;;5048625;28;20083;-78
2021/10/25 01:16:53;;;;;;;20.55;8.90;;;;;;;;;;5051323;28;20131;-78
2021/10/25 01:19:20;;;;;;;15.85;8.48;;;;;;;;;;5037978;28;20096;-78
2021/10/25 01:21:48;;;;;;;17.20;8.63;;;;;;;;;;5041706;28;20077;-78
2021/10/25 01:24:15;;;;;;;25.95;10.30;;;;;;;;;;5051256;28;20083;-78
2021/10/25 01:26:43;;;;;;;18.45;8.95;;;;;;;;;;5016308;28;20081;-78
2021/10/25 01:29:10;;;;;;;27.55;8.90;;;;;;;;;;5024550;28;20052;-77
2021/10/25 01:31:38;;;;;;;18.50;8.70;;;;;;;;;;5037924;28;20080;-77
2021/10/25 01:34:06;;;;;;;21.98;8.63;;;;;;;;;;5034245;28;20056;-78
2021/10/25 01:36:33;;;;;;;21.15;8.18;;;;;;;;;;5043576;28;20073;-78
2021/10/25 01:39:01;;;;;;;26.73;8.57;;;;;;;;;;5038237;28;20084;-78
2021/10/25 01:41:28;;;;;;;18.70;7.85;;;;;;;;;;5033030;28;20148;-78
2021/10/25 01:43:55;;;;;;;22.10;8.98;;;;;;;;;;5032254;28;20088;-78
2021/10/25 01:46:22;;;;;;;16.58;8.40;;;;;;;;;;5041543;28;20470;-78
2021/10/25 01:48:49;;;;;;;26.17;9.02;;;;;;;;;;5057339;28;20084;-78
2021/10/25 01:51:18;;;;;;;24.33;9.20;;;;;;;;;;5029253;28;20081;-78
2021/10/25 01:53:46;;;;;;;30.98;9.20;;;;;;;;;;5011887;28;20133;-78
2021/10/25 01:56:13;;;;;;;23.45;8.65;;;;;;;;;;5030123;28;20165;-77
2021/10/25 01:58:40;;;;;;;20.95;7.90;;;;;;;;;;5032361;28;20127;-78
2021/10/25 02:01:07;;;;;;;20.75;8.50;;;;;;;;;;5065713;28;20140;-78
2021/10/25 02:03:36;;;;;;;24.58;8.32;;;;;;;;;;5048475;28;20049;-78
2021/10/25 02:06:04;;;;;;;24.00;9.30;;;;;;;;;;5051203;28;20127;-78
2021/10/25 02:08:31;;;;;;;18.55;8.65;;;;;;;;;;5033935;28;20072;-78
2021/10/25 02:10:58;;;;;;;20.25;8.68;;;;;;;;;;5037088;28;20478;-78
2021/10/25 02:13:26;;;;;;;18.20;7.70;;;;;;;;;;5049782;28;20561;-78
2021/10/25 02:15:54;;;;;;;22.70;8.13;;;;;;;;;;5051819;28;20076;-78
2021/10/25 02:18:22;;;;;;;22.20;8.23;;;;;;;;;;5053108;28;20132;-78
2021/10/25 02:20:50;;;;;;;21.88;9.65;;;;;;;;;;5036759;28;20080;-78
2021/10/25 02:23:17;;;;;;;15.75;7.90;;;;;;;;;;5044102;28;20062;-78
2021/10/25 02:25:45;;;;;;;24.52;8.75;;;;;;;;;;5037530;28;20077;-78
2021/10/25 02:28:12;;;;;;;19.30;8.30;;;;;;;;;;5048626;28;20118;-78
2021/10/25 02:30:40;;;;;;;16.98;8.25;;;;;;;;;;5052145;28;20749;-78
2021/10/25 02:33:07;;;;;;;21.92;8.00;;;;;;;;;;5044632;28;20073;-78
2021/10/25 02:35:34;;;;;;;17.92;6.97;;;;;;;;;;5044871;28;20493;-78
2021/10/25 02:38:01;;;;;;;19.73;8.25;;;;;;;;;;5034444;28;20091;-78
2021/10/25 02:40:29;;;;;;;19.80;8.38;;;;;;;;;;5037660;28;20132;-78
2021/10/25 02:42:56;;;;;;;21.27;7.85;;;;;;;;;;5028215;28;20096;-78
2021/10/25 02:45:24;;;;;;;24.25;8.55;;;;;;;;;;5047990;28;20947;-78
2021/10/25 02:47:52;;;;;;;20.27;7.88;;;;;;;;;;5060859;28;20049;-78
2021/10/25 02:50:19;;;;;;;21.55;7.78;;;;;;;;;;5033511;28;20510;-78
2021/10/25 02:52:47;;;;;;;17.25;7.65;;;;;;;;;;5043310;28;20048;-78
2021/10/25 02:55:14;;;;;;;24.48;7.90;;;;;;;;;;5044731;28;20083;-78
2021/10/25 02:57:42;;;;;;;18.67;8.15;;;;;;;;;;5015232;28;20112;-78
2021/10/25 03:00:10;;;;;;;20.45;7.68;;;;;;;;;;5039071;28;20509;-78
2021/10/25 03:02:37;;;;;;;25.65;8.82;;;;;;;;;;5058814;28;20144;-78
2021/10/25 03:05:06;;;;;;;25.02;9.10;;;;;;;;;;5053128;28;20126;-78
2021/10/25 03:07:33;;;;;;;18.65;8.05;;;;;;;;;;5040730;28;20136;-78
2021/10/25 03:10:00;;;;;;;25.80;8.75;;;;;;;;;;5047849;28;20055;-78
2021/10/25 03:12:28;;;;;;;18.30;7.80;;;;;;;;;;5023902;28;20104;-78
2021/10/25 03:14:55;;;;;;;22.80;7.93;;;;;;;;;;5054153;28;20040;-77
2021/10/25 03:17:22;;;;;;;17.15;7.90;;;;;;;;;;5059654;28;20052;-78
2021/10/25 03:19:50;;;;;;;18.60;8.20;;;;;;;;;;5028709;28;20064;-77
2021/10/25 03:22:17;;;;;;;26.05;8.88;;;;;;;;;;5012608;28;20168;-78
2021/10/25 03:24:45;;;;;;;23.75;8.77;;;;;;;;;;5044840;28;20132;-78
2021/10/25 03:27:12;;;;;;;19.38;8.43;;;;;;;;;;5042535;28;20064;-78
2021/10/25 03:29:39;;;;;;;18.13;7.53;;;;;;;;;;5027689;28;20126;-78
2021/10/25 03:32:07;;;;;;;27.17;8.10;;;;;;;;;;5039691;28;20056;-78
2021/10/25 03:34:34;;;;;;;21.40;7.82;;;;;;;;;;5044539;28;20052;-78
2021/10/25 03:37:01;;;;;;;18.73;7.75;;;;;;;;;;5055329;28;20079;-78
2021/10/25 03:39:32;;;;;;;20.08;7.90;;;;;;;;;;5028272;28;20136;-78
2021/10/25 03:42:02;;;;;;;25.40;8.50;;;;;;;;;;5022446;28;20115;-78
2021/10/25 03:44:56;;;;;;;26.23;8.60;;;;;;;;;;5044457;28;20079;-78
2021/10/25 03:47:39;;;;;;;16.45;7.93;;;;;;;;;;5050737;28;20055;-78
2021/10/25 03:50:16;;;;;;;26.02;8.38;;;;;;;;;;5039551;28;20655;-78
2021/10/25 04:27:55;;;;;;;20.05;8.57;;;;;;;;;;5032533;28;20134;-78
2021/10/25 04:30:23;;;;;;;21.20;9.38;;;;;;;;;;5039805;28;20036;-78
2021/10/25 04:32:50;;;;;;;22.65;9.95;;;;;;;;;;5030828;28;20121;-78
2021/10/25 04:35:17;;;;;;;20.52;8.98;;;;;;;;;;5031342;28;20059;-78
2021/10/25 04:37:44;;;;;;;20.05;8.27;;;;;;;;;;5044676;28;20056;-78
2021/10/25 04:40:13;;;;;;;22.17;8.93;;;;;;;;;;5012340;28;20792;-78
2021/10/25 04:42:40;;;;;;;23.17;8.40;;;;;;;;;;5027233;28;20136;-77
2021/10/25 04:45:08;;;;;;;27.63;9.93;;;;;;;;;;5036973;28;20093;-78
2021/10/25 04:47:35;;;;;;;22.58;9.40;;;;;;;;;;5029183;28;20498;-77
2021/10/25 04:50:06;;;;;;;24.65;9.10;;;;;;;;;;5038971;28;20057;-77
2021/10/25 04:52:33;;;;;;;23.35;9.05;;;;;;;;;;5010838;28;20717;-77
2021/10/25 04:55:00;;;;;;;20.48;9.60;;;;;;;;;;5044999;28;20461;-77
2021/10/25 04:57:27;;;;;;;18.30;8.27;;;;;;;;;;5039154;28;20076;-78
2021/10/25 04:59:54;;;;;;;19.15;8.85;;;;;;;;;;5030544;28;20044;-78
2021/10/25 05:02:22;;;;;;;31.10;10.05;;;;;;;;;;5022617;28;20077;-78
2021/10/25 05:04:49;;;;;;;21.00;9.63;;;;;;;;;;5034384;28;20045;-78
2021/10/25 05:07:17;;;;;;;24.00;8.52;;;;;;;;;;5031370;28;20136;-77
2021/10/25 05:09:44;;;;;;;22.52;8.82;;;;;;;;;;5029255;28;20136;-78
2021/10/25 05:12:14;;;;;;;21.80;9.88;;;;;;;;;;5029906;28;20144;-77
2021/10/25 05:14:42;;;;;;;27.17;9.43;;;;;;;;;;5027096;28;20044;-78
2021/10/25 05:17:09;;;;;;;23.00;9.45;;;;;;;;;;5053481;28;20604;-79
2021/10/25 05:19:37;;;;;;;23.98;9.25;;;;;;;;;;5038628;28;20095;-78
2021/10/25 05:22:04;;;;;;;24.35;9.25;;;;;;;;;;5020929;28;20139;-77
2021/10/25 05:24:32;;;;;;;27.50;10.07;;;;;;;;;;5042570;28;20091;-76
2021/10/25 05:27:00;;;;;;;23.73;9.43;;;;;;;;;;5033445;28;20454;-78
2021/10/25 05:29:31;;;;;;;22.75;9.55;;;;;;;;;;5046889;28;20050;-76
2021/10/25 05:32:01;;;;;;;21.85;10.13;;;;;;;;;;5052424;28;20080;-79
2021/10/25 05:34:29;;;;;;;24.40;9.90;;;;;;;;;;5044373;28;20077;-78
2021/10/25 05:36:57;;;;;;;24.15;9.45;;;;;;;;;;5049249;28;20049;-79
2021/10/25 05:39:24;;;;;;;27.08;10.10;;;;;;;;;;5038121;28;20506;-81
2021/10/25 05:41:51;;;;;;;21.08;9.32;;;;;;;;;;5023718;28;20070;-80
2021/10/25 05:44:19;;;;;;;31.75;10.00;;;;;;;;;;5039460;28;20867;-80
2021/10/25 05:46:46;;;;;;;20.85;9.23;;;;;;;;;;5030734;28;20051;-79
2021/10/25 05:49:14;;;;;;;24.80;9.15;;;;;;;;;;5038851;28;20517;-80
2021/10/25 05:51:42;;;;;;;23.58;8.73;;;;;;;;;;5024458;28;20049;-82
2021/10/25 05:54:11;;;;;;;20.25;8.65;;;;;;;;;;5041913;28;20061;-82
2021/10/25 05:56:48;;;;;;;23.02;8.85;;;;;;;;;;5028594;28;20052;-82
2021/10/25 05:59:17;;;;;;;23.48;10.45;;;;;;;;;;5030392;28;20073;-82
2021/10/25 06:01:55;;;;;;;24.05;9.18;;;;;;;;;;5043754;28;20451;-81
2021/10/25 06:04:26;;;;;;;26.65;9.02;;;;;;;;;;5036349;28;20379;-80
2021/10/25 06:06:54;;;;;;;21.60;8.52;;;;;;;;;;5061257;28;20044;-80
2021/10/25 06:09:24;;;;;;;23.98;9.25;;;;;;;;;;5043822;28;20750;-80
2021/10/25 06:11:51;;;;;;;24.00;9.88;;;;;;;;;;5049825;28;20049;-80
2021/10/25 06:14:27;;;;;;;24.27;9.05;;;;;;;;;;5040282;28;20053;-79
2021/10/25 06:20:00;;;;;;;27.35;10.60;;;;;;;;;;5015298;28;20123;-76
2021/10/25 06:22:29;;;;;;;29.27;10.95;;;;;;;;;;5012963;28;20146;-77
2021/10/25 06:24:56;;;;;;;21.45;9.93;;;;;;;;;;5022241;28;20054;-77
2021/10/25 06:27:24;;;;;;;21.58;9.50;;;;;;;;;;5027149;28;20772;-78
2021/10/25 06:29:53;;;;;;;23.23;9.75;;;;;;;;;;5017135;28;20471;-78
2021/10/25 06:32:20;;;;;;;24.13;8.77;;;;;;;;;;5013868;28;20132;-78
2021/10/25 06:34:50;;;;;;;27.75;9.93;;;;;;;;;;5013721;28;20129;-78
2021/10/25 06:37:19;;;;;;;23.08;9.10;;;;;;;;;;5014389;28;20096;-78
2021/10/25 06:39:54;;;;;;;24.77;9.60;;;;;;;;;;5020248;28;20088;-78
2021/10/25 06:42:24;;;;;;;33.60;10.88;;;;;;;;;;5013307;28;20089;-78
2021/10/25 06:45:00;;;;;;;24.95;10.82;;;;;;;;;;5015567;28;20115;-79
2021/10/25 06:47:27;;;;;;;24.77;10.32;;;;;;;;;;5018492;28;20081;-81
2021/10/25 06:49:55;;;;;;;28.20;10.32;;;;;;;;;;5016931;28;20438;-80
2021/10/25 06:52:22;;;;;;;30.00;9.90;;;;;;;;;;5015882;28;20499;-78
2021/10/25 06:54:50;;;;;;;25.73;9.75;;;;;;;;;;5012588;28;20108;-78
2021/10/25 06:57:17;;;;;;;36.25;9.82;;;;;;;;;;5027984;28;20088;-78
2021/10/25 06:59:44;;;;;;;22.52;10.07;;;;;;;;;;5017414;28;20550;-78
2021/10/25 07:02:12;;;;;;;24.45;9.57;;;;;;;;;;5026869;28;20857;-77
2021/10/25 07:04:43;;;;;;;27.42;9.13;;;;;;;;;;5019257;28;20687;-78
2021/10/25 07:07:10;;;;;;;27.83;10.48;;;;;;;;;;5012095;28;20122;-79
2021/10/25 07:09:38;;;;;;;23.65;10.80;;;;;;;;;;5011309;28;20096;-78
2021/10/25 07:12:06;;;;;;;28.85;10.45;;;;;;;;;;5012903;28;20558;-78
2021/10/25 07:14:36;;;;;;;25.00;10.13;;;;;;;;;;5013031;28;20803;-79
2021/10/25 08:08:49;;;;;;;25.70;11.82;;;;;;;;;;5109323;28;20435;-80
2021/10/25 08:11:18;;;;;;;36.92;13.02;;;;;;;;;;5074197;28;20047;-81
2021/10/25 08:14:08;;;;;;;28.88;10.57;;;;;;;;;;5080663;28;20487;-81
2021/10/25 08:16:49;;;;;;;18.98;9.70;;;;;;;;;;5087637;28;20148;-81
2021/10/25 08:21:53;;;;;;;16.33;8.30;;;;;;;;;;5109694;27;20054;-80
2021/10/25 08:24:20;;;;;;;24.65;8.60;;;;;;;;;;5085914;28;20086;-77
2021/10/25 08:26:49;;;;;;;20.55;8.18;;;;;;;;;;5111930;27;20127;-77
2021/10/25 08:29:18;;;;;;;20.30;8.00;;;;;;;;;;5095155;28;20051;-76
2021/10/25 08:31:53;;;;;;;18.35;7.63;;;;;;;;;;5086203;28;20452;-75
2021/10/25 08:39:51;;;;;;;15.13;7.03;;;;;;;;;;5114546;22;20075;-77
2021/10/25 08:42:25;;;;;;;30.67;13.32;;;;;;;;;;5040386;28;20095;-77
2021/10/25 08:45:16;;;;;;;21.73;8.80;;;;;;;;;;5020575;28;20076;-76
2021/10/25 08:47:46;;;;;;;25.05;9.73;;;;;;;;;;5038823;28;20503;-77
2021/10/25 08:50:15;;;;;;;15.05;7.30;;;;;;;;;;5036208;28;20152;-77
2021/10/25 08:52:42;;;;;;;18.25;7.18;;;;;;;;;;5030375;28;20151;-76
2021/10/25 08:55:11;;;;;;;16.08;7.35;;;;;;;;;;5032147;28;20080;-76
2021/10/25 08:57:40;;;;;;;16.33;6.72;;;;;;;;;;5040108;28;20141;-77
2021/10/25 09:00:09;;;;;;;16.50;6.90;;;;;;;;;;5033517;28;20136;-77
2021/10/25 09:02:37;;;;;;;27.58;8.18;;;;;;;;;;5044735;28;20115;-79
2021/10/25 09:05:10;;;;;;;23.02;7.38;;;;;;;;;;5041901;28;20088;-77
2021/10/25 09:08:03;;;;;;;16.58;7.25;;;;;;;;;;5035111;28;20108;-77
2021/10/25 09:10:59;;;;;;;18.10;6.90;;;;;;;;;;5032383;28;20064;-77
2021/10/25 09:13:28;;;;;;;21.65;7.05;;;;;;;;;;5010601;28;20106;-77
2021/10/25 09:15:57;;;;;;;17.02;6.78;;;;;;;;;;5031094;28;20095;-77
2021/10/25 09:18:31;;;;;;;15.60;6.43;;;;;;;;;;5026727;28;20045;-77
2021/10/25 09:21:00;;;;;;;21.77;6.88;;;;;;;;;;5041928;28;20053;-77
2021/10/25 09:23:29;;;;;;;62.80;10.45;;;;;;;;;;5044863;28;20168;-77
2021/10/25 09:26:03;;;;;;;31.88;7.68;;;;;;;;;;5034980;28;20083;-77
2021/10/25 09:28:36;;;;;;;17.02;6.95;;;;;;;;;;5039749;28;20053;-77
2021/10/25 09:31:13;;;;;;;20.13;7.00;;;;;;;;;;5033531;28;20059;-77
2021/10/25 09:33:42;;;;;;;17.30;6.85;;;;;;;;;;5032886;28;20064;-77
2021/10/25 09:36:11;;;;;;;18.13;6.63;;;;;;;;;;5041903;28;20085;-76
2021/10/25 09:49:30;;;;;;;16.73;6.35;;;;;;;;;;5040930;28;20148;-79
2021/10/25 09:51:58;;;;;;;13.02;6.82;;;;;;;;;;5043591;28;20041;-79
2021/10/25 09:57:11;;;;;;;18.90;7.32;;;;;;;;;;5021713;28;20073;-79
2021/10/25 09:59:50;;;;;;;17.02;7.15;;;;;;;;;;5030188;28;20113;-75
2021/10/25 10:02:18;;;;;;;12.52;6.72;;;;;;;;;;5029713;28;20451;-76
2021/10/25 10:04:46;;;;;;;32.33;7.90;;;;;;;;;;5031283;28;20076;-76
2021/10/25 10:10:34;;;;;;;19.52;7.78;;;;;;;;;;5030167;28;20060;-77
2021/10/25 10:13:02;;;;;;;13.55;7.53;;;;;;;;;;5026742;28;20128;-75
2021/10/25 10:15:30;;;;;;;16.90;7.63;;;;;;;;;;5029652;28;20050;-76
2021/10/25 10:18:07;;;;;;;16.40;7.45;;;;;;;;;;5026110;28;20069;-76
2021/10/25 10:20:35;;;;;;;17.95;8.13;;;;;;;;;;5026737;28;20045;-76
2021/10/25 10:23:08;;;;;;;16.17;6.97;;;;;;;;;;5025545;28;20093;-76
2021/10/25 10:25:55;;;;;;;19.23;8.27;;;;;;;;;;5025673;28;20703;-80
2021/10/25 10:28:35;;;;;;;24.33;7.75;;;;;;;;;;5034460;28;20433;-76
2021/10/25 10:31:04;;;;;;;15.57;7.50;;;;;;;;;;5026913;28;20092;-76
2021/10/25 10:33:31;;;;;;;14.25;8.32;;;;;;;;;;5028377;28;20057;-81
2021/10/25 10:36:09;;;;;;;17.52;7.55;;;;;;;;;;5026728;28;20700;-78
2021/10/25 10:38:43;;;;;;;17.02;7.90;;;;;;;;;;5028062;28;20057;-77
2021/10/25 10:41:12;;;;;;;13.30;7.13;;;;;;;;;;5028734;28;20056;-78
2021/10/25 10:43:40;;;;;;;15.05;7.63;;;;;;;;;;5033270;28;20123;-80
2021/10/25 10:46:17;;;;;;;16.83;8.15;;;;;;;;;;5034151;28;20111;-81
2021/10/25 10:48:53;;;;;;;14.77;7.25;;;;;;;;;;5029300;28;20045;-78
2021/10/25 10:51:26;;;;;;;18.58;7.93;;;;;;;;;;5024923;28;20049;-77
2021/10/25 10:54:00;;;;;;;18.95;6.95;;;;;;;;;;5026381;28;20056;-77
2021/10/25 10:56:37;;;;;;;13.07;7.13;;;;;;;;;;5024377;28;20073;-77
2021/10/25 11:01:32;;;;;;;16.02;7.13;;;;;;;;;;5027649;28;20810;-77
2021/10/25 11:04:10;;;;;;;20.98;8.32;;;;;;;;;;5026231;28;20054;-78
2021/10/25 11:06:38;;;;;;;16.50;7.38;;;;;;;;;;5025762;28;20132;-77
2021/10/25 11:09:09;;;;;;;16.58;7.30;;;;;;;;;;5024986;28;20890;-77
2021/10/25 11:11:39;;;;;;;15.77;7.63;;;;;;;;;;5024462;28;20162;-76
2021/10/25 11:14:14;;;;;;;17.02;8.07;;;;;;;;;;5026758;28;20474;-75
2021/10/25 11:17:02;;;;;;;;;;;;;;;;;;5025205;28;20441;-74
2021/10/25 11:19:29;;;;;;;16.10;7.55;;;;;;;;;;5032303;28;19956;-78
2021/10/25 11:22:01;;;;;;;21.65;7.88;;;;;;;;;;5034801;28;20820;-80
2021/10/25 11:24:31;;;;;;;19.73;9.55;;;;;;;;;;5041485;28;20092;-80
2021/10/25 11:26:59;;;;;;;22.08;8.23;;;;;;;;;;5028458;28;20053;-75
2021/10/25 11:29:36;;;;;;;17.60;8.85;;;;;;;;;;5040026;28;20110;-80
2021/10/25 11:32:05;;;;;;;18.73;7.72;;;;;;;;;;5049212;22;20386;-75
2021/10/25 11:34:37;;;;;;;20.98;7.85;;;;;;;;;;5045336;28;20490;-79
2021/10/25 11:37:16;;;;;;;22.92;8.27;;;;;;;;;;5031512;28;20155;-82
2021/10/25 11:39:51;;;;;;;19.00;8.52;;;;;;;;;;5042322;28;20664;-75
2021/10/25 11:42:20;;;;;;;19.52;8.32;;;;;;;;;;5019552;28;20057;-75
2021/10/25 11:44:49;;;;;;;14.15;7.95;;;;;;;;;;5026056;28;20136;-75
2021/10/25 11:47:21;;;;;;;15.98;7.40;;;;;;;;;;5027449;28;20053;-75
2021/10/25 11:49:48;;;;;;;16.65;7.88;;;;;;;;;;5032307;28;20136;-75
2021/10/25 11:52:16;;;;;;;13.60;7.63;;;;;;;;;;5045925;28;20156;-75
2021/10/25 11:54:54;;;;;;;15.18;7.63;;;;;;;;;;5022390;28;20136;-76
2021/10/25 11:57:27;;;;;;;17.63;9.55;;;;;;;;;;5046154;28;20084;-75
2021/10/25 12:00:09;;;;;;;20.13;8.85;;;;;;;;;;5034832;28;20723;-75
2021/10/25 12:02:37;;;;;;;16.90;8.23;;;;;;;;;;5038316;28;20160;-76
2021/10/25 12:05:05;;;;;;;12.73;7.43;;;;;;;;;;5029601;28;20060;-75
2021/10/25 12:07:33;;;;;;;15.85;8.35;;;;;;;;;;5047329;28;20048;-76
2021/10/25 12:10:01;;;;;;;15.02;8.05;;;;;;;;;;5055198;28;20630;-77
2021/10/25 12:12:28;;;;;;;15.68;7.80;;;;;;;;;;5030624;28;20104;-76
2021/10/25 12:14:59;;;;;;;16.85;8.27;;;;;;;;;;5028940;28;20135;-75
2021/10/25 12:17:27;;;;;;;23.55;8.30;;;;;;;;;;5048233;28;20052;-77
2021/10/25 12:19:54;;;;;;;19.27;8.10;;;;;;;;;;5049344;28;20828;-77
2021/10/25 12:22:21;;;;;;;20.35;8.45;;;;;;;;;;5049020;28;20057;-78
2021/10/25 12:24:50;;;;;;;17.92;8.82;;;;;;;;;;5024599;28;20120;-76
2021/10/25 12:27:41;;;;;;;20.70;8.57;;;;;;;;;;5013432;28;20084;-75
2021/10/25 12:30:11;;;;;;;17.48;8.05;;;;;;;;;;5041495;28;20057;-77
2021/10/25 12:32:49;;;;;;;13.30;8.00;;;;;;;;;;5048575;28;20486;-75
2021/10/25 12:35:17;;;;;;;14.90;8.95;;;;;;;;;;5041509;28;20893;-76
2021/10/25 12:37:44;;;;;;;20.52;8.70;;;;;;;;;;5022801;28;20674;-77
2021/10/25 12:40:19;;;;;;;18.63;8.52;;;;;;;;;;5047393;28;20122;-76
2021/10/25 12:42:46;;;;;;;18.83;8.93;;;;;;;;;;5038237;28;20135;-77
2021/10/25 12:45:15;;;;;;;15.95;8.65;;;;;;;;;;5040150;28;20068;-78
2021/10/25 12:47:42;;;;;;;20.23;9.30;;;;;;;;;;5036225;28;20056;-75
2021/10/25 12:50:11;;;;;;;18.30;8.35;;;;;;;;;;5037526;28;20100;-75
2021/10/25 12:52:40;;;;;;;20.70;8.75;;;;;;;;;;5036698;28;20049;-77
2021/10/25 12:55:07;;;;;;;17.05;9.02;;;;;;;;;;5035267;28;20163;-77
2021/10/25 12:57:36;;;;;;;17.85;9.25;;;;;;;;;;5022247;28;20068;-76
2021/10/25 13:00:11;;;;;;;18.88;8.90;;;;;;;;;;5022466;28;20041;-76
2021/10/25 13:02:47;;;;;;;17.05;9.13;;;;;;;;;;5039193;28;20132;-75
2021/10/25 13:05:16;;;;;;;16.60;9.02;;;;;;;;;;5035511;28;20795;-83
2021/10/25 13:07:48;;;;;;;22.20;9.40;;;;;;;;;;5041634;28;20135;-82
2021/10/25 13:10:16;;;;;;;16.98;8.73;;;;;;;;;;5045968;28;20085;-82
2021/10/25 13:12:43;;;;;;;19.13;10.00;;;;;;;;;;5046319;28;20077;-81
2021/10/25 13:15:10;;;;;;;19.63;10.00;;;;;;;;;;5032097;28;20057;-83
2021/10/25 13:17:41;;;;;;;19.90;11.38;;;;;;;;;;5026311;28;20050;-83
2021/10/25 13:20:10;;;;;;;36.92;18.90;;;;;;;;;;5049327;28;20539;-84
2021/10/25 13:22:37;;;;;;;28.42;18.30;;;;;;;;;;5045028;28;20052;-84
2021/10/25 13:25:05;;;;;;;28.10;16.45;;;;;;;;;;5027171;28;20049;-82
2021/10/25 13:27:32;;;;;;;28.05;11.90;;;;;;;;;;5030565;28;20073;-81
2021/10/25 13:30:00;;;;;;;25.27;10.25;;;;;;;;;;5053663;28;20083;-83
2021/10/25 13:32:28;;;;;;;15.88;9.07;;;;;;;;;;5060641;28;20126;-83
2021/10/25 13:34:55;;;;;;;18.67;9.30;;;;;;;;;;5055685;28;20041;-81
2021/10/25 13:37:23;;;;;;;23.80;9.00;;;;;;;;;;5034908;28;20045;-83
2021/10/25 13:39:54;;;;;;;14.35;8.45;;;;;;;;;;5019524;28;20049;-81
2021/10/25 13:42:21;;;;;;;16.73;9.07;;;;;;;;;;5065844;28;20132;-82
2021/10/25 13:44:49;;;;;;;17.40;8.55;;;;;;;;;;5053704;28;20049;-79
2021/10/25 13:47:16;;;;;;;17.65;9.20;;;;;;;;;;5028616;28;20148;-78
2021/10/25 13:49:44;;;;;;;27.33;10.43;;;;;;;;;;5038983;28;20474;-77
2021/10/25 13:52:11;;;;;;;18.08;9.77;;;;;;;;;;5040801;28;20494;-78
2021/10/25 13:54:39;;;;;;;15.15;8.82;;;;;;;;;;5045082;28;20052;-77
2021/10/25 13:57:08;;;;;;;23.98;9.85;;;;;;;;;;5023793;28;20158;-77
2021/10/25 13:59:35;;;;;;;23.55;9.25;;;;;;;;;;5043211;28;20055;-77
2021/10/25 14:02:07;;;;;;;19.15;9.18;;;;;;;;;;5029301;28;20536;-78
2021/10/25 14:04:54;;;;;;;18.23;9.80;;;;;;;;;;5026380;28;20132;-77
2021/10/25 14:07:23;;;;;;;21.83;9.35;;;;;;;;;;5023689;28;20053;-77
2021/10/25 14:09:56;;;;;;;15.80;8.60;;;;;;;;;;5024039;28;20586;-77
2021/10/25 14:12:26;;;;;;;18.23;8.52;;;;;;;;;;5040178;28;20053;-78
2021/10/25 14:17:45;;;;;;;24.20;9.95;;;;;;;;;;5046225;28;20048;-77
2021/10/25 14:20:13;;;;;;;21.50;9.35;;;;;;;;;;5030208;28;20141;-77
2021/10/25 14:22:40;;;;;;;19.40;8.43;;;;;;;;;;5040235;28;20473;-78
2021/10/25 14:25:07;;;;;;;18.92;8.98;;;;;;;;;;5023628;28;20091;-77
2021/10/25 14:27:36;;;;;;;20.23;9.23;;;;;;;;;;5043747;28;20091;-79
2021/10/25 14:30:03;;;;;;;22.25;10.07;;;;;;;;;;5045122;28;20153;-77
2021/10/25 14:32:31;;;;;;;18.83;10.00;;;;;;;;;;5048361;28;20210;-78
2021/10/25 14:34:58;;;;;;;16.42;9.27;;;;;;;;;;5045595;28;20052;-77
2021/10/25 14:37:39;;;;;;;20.40;9.80;;;;;;;;;;5022649;28;20474;-78
2021/10/25 14:40:14;;;;;;;25.27;9.80;;;;;;;;;;5034987;28;20109;-81
2021/10/25 14:42:50;;;;;;;23.13;9.35;;;;;;;;;;5051652;28;21405;-80
2021/10/25 14:45:29;;;;;;;20.58;9.88;;;;;;;;;;5058528;28;20144;-80
2021/10/25 14:58:23;;;;;;;18.60;8.45;;;;;;;;;;5048869;28;20049;-80
2021/10/25 15:00:57;;;;;;;20.85;9.02;;;;;;;;;;5054784;28;20048;-83
2021/10/25 15:03:27;;;;;;;21.95;9.43;;;;;;;;;;5062698;28;20110;-83
2021/10/25 15:06:07;;;;;;;19.75;8.98;;;;;;;;;;5054284;28;20072;-84
2021/10/25 15:08:37;;;;;;;23.08;9.38;;;;;;;;;;5051648;28;20076;-80
2021/10/25 15:11:04;;;;;;;18.02;9.07;;;;;;;;;;5035997;28;20078;-80
2021/10/25 15:13:32;;;;;;;19.33;9.23;;;;;;;;;;5042202;28;20049;-80
2021/10/25 15:15:59;;;;;;;20.77;10.20;;;;;;;;;;5042280;28;20440;-80
2021/10/25 15:18:27;;;;;;;16.90;9.68;;;;;;;;;;5029133;28;20061;-81
2021/10/25 15:20:55;;;;;;;21.63;9.77;;;;;;;;;;5034053;28;20136;-81
2021/10/25 15:23:22;;;;;;;31.42;9.75;;;;;;;;;;5041247;28;20684;-81
2021/10/25 15:25:57;;;;;;;20.23;9.73;;;;;;;;;;5024008;28;20107;-81
2021/10/25 15:28:24;;;;;;;24.00;10.73;;;;;;;;;;5029664;28;20045;-81
2021/10/25 15:30:52;;;;;;;18.55;9.82;;;;;;;;;;5033263;28;20146;-81
2021/10/25 15:33:24;;;;;;;27.88;9.85;;;;;;;;;;5030220;28;20055;-80
2021/10/25 15:35:56;;;;;;;18.95;9.00;;;;;;;;;;5052862;28;20045;-81
2021/10/25 15:38:25;;;;;;;16.83;9.13;;;;;;;;;;5045689;28;20462;-79
2021/10/25 15:40:54;;;;;;;19.83;10.35;;;;;;;;;;5047178;28;20045;-79
2021/10/25 15:43:21;;;;;;;18.98;9.52;;;;;;;;;;5022437;28;20757;-82
2021/10/25 15:45:50;;;;;;;28.90;9.68;;;;;;;;;;5033442;28;20401;-77
2021/10/25 15:51:49;;;;;;;16.75;9.73;;;;;;;;;;5092467;22;20867;-80
2021/10/25 15:54:17;;;;;;;21.98;9.52;;;;;;;;;;5093361;28;20044;-79
2021/10/25 15:56:46;;;;;;;18.30;9.77;;;;;;;;;;5085013;28;20074;-87
2021/10/25 15:59:14;;;;;;;17.35;9.50;;;;;;;;;;5083490;28;20044;-85
2021/10/25 16:01:42;;;;;;;18.48;9.70;;;;;;;;;;5099950;28;20044;-84
2021/10/25 16:04:10;;;;;;;20.88;9.65;;;;;;;;;;5085207;28;20520;-84
2021/10/25 16:06:41;;;;;;;27.10;10.32;;;;;;;;;;5089089;28;20055;-82
2021/10/25 16:09:10;;;;;;;20.02;9.68;;;;;;;;;;5087258;28;20097;-82
2021/10/25 16:11:39;;;;;;;18.92;9.98;;;;;;;;;;5100144;28;20052;-82
2021/10/25 16:14:14;;;;;;;18.90;9.40;;;;;;;;;;5099463;28;20138;-82
2021/10/25 16:16:44;;;;;;;23.23;9.90;;;;;;;;;;5077587;28;20055;-82
2021/10/25 16:19:13;;;;;;;17.38;9.38;;;;;;;;;;5082161;28;20138;-82
2021/10/25 16:21:45;;;;;;;21.00;10.20;;;;;;;;;;5089972;28;20043;-82
2021/10/25 16:24:13;;;;;;;18.35;10.07;;;;;;;;;;5099924;28;20087;-82
2021/10/25 16:26:44;;;;;;;21.05;9.98;;;;;;;;;;5109661;28;20047;-82
2021/10/25 16:29:17;;;;;;;18.83;10.18;;;;;;;;;;5104680;28;20914;-82
2021/10/25 16:31:51;;;;;;;23.63;10.50;;;;;;;;;;5103117;28;20079;-82
2021/10/25 16:34:25;;;;;;;30.63;11.30;;;;;;;;;;5089726;28;20100;-82
2021/10/25 16:36:54;;;;;;;22.55;11.05;;;;;;;;;;5089830;28;20105;-82
2021/10/25 16:39:22;;;;;;;20.83;10.57;;;;;;;;;;5092287;28;20079;-82
2021/10/25 16:41:53;;;;;;;19.92;11.05;;;;;;;;;;5107628;28;20047;-82
2021/10/25 16:44:22;;;;;;;31.42;11.77;;;;;;;;;;5088009;28;20077;-82
2021/10/25 16:46:52;;;;;;;23.42;11.15;;;;;;;;;;5082837;28;20086;-82
2021/10/25 16:49:25;;;;;;;22.48;11.80;;;;;;;;;;5084430;28;20765;-81
2021/10/25 16:52:03;;;;;;;22.77;11.50;;;;;;;;;;5088773;28;20461;-81
2021/10/25 17:03:13;;;;;;;25.15;10.93;;;;;;;;;;5098240;28;20058;-81
2021/10/25 17:11:13;;;;;;;24.77;11.23;;;;;;;;;;5099890;28;20473;-82